createdAt,value
2019-01-17T00:00:33.970Z,99574.56
2019-01-17T00:06:14.709Z,99570.63
2019-01-17T00:09:20.852Z,99594.46
2019-01-17T00:12:10.678Z,99573.66
2019-01-17T00:15:07.918Z,99561.70
2019-01-17T00:17:54.282Z,99567.44
2019-01-17T00:20:51.373Z,99554.88
2019-01-17T00:23:39.248Z,99560.98
2019-01-17T00:26:30.074Z,99555.46
2019-01-17T00:29:17.946Z,99547.41
2019-01-17T00:32:11.695Z,99536.66
2019-01-17T00:34:51.573Z,99535.27
2019-01-17T00:37:34.865Z,99523.20
2019-01-17T00:40:21.735Z,99532.95
2019-01-17T00:43:12.217Z,99538.89
2019-01-17T00:45:58.911Z,99528.60
2019-01-17T00:48:44.123Z,99530.33
2019-01-17T00:51:28.748Z,99527.72
2019-01-17T00:54:10.054Z,99514.05
2019-01-17T00:57:02.683Z,99522.39
2019-01-17T00:59:49.279Z,99523.70
2019-01-17T01:02:30.160Z,99527.30
2019-01-17T01:05:10.570Z,99520.37
2019-01-17T01:07:57.131Z,99533.02
2019-01-17T01:10:47.413Z,99528.37
2019-01-17T01:13:33.752Z,99520.95
2019-01-17T01:16:38.061Z,99538.03
2019-01-17T01:19:30.546Z,99523.14
2019-01-17T01:22:30.593Z,99529.30
2019-01-17T01:25:17.224Z,99522.27
2019-01-17T01:28:01.137Z,99531.50
2019-01-17T01:30:49.017Z,99518.34
2019-01-17T01:33:35.541Z,99526.91
2019-01-17T01:36:23.470Z,99527.78
2019-01-17T01:39:26.302Z,99528.50
2019-01-17T01:42:23.090Z,99539.56
2019-01-17T01:45:16.513Z,99520.74
2019-01-17T01:48:08.186Z,99528.88
2019-01-17T01:50:49.560Z,99537.06
2019-01-17T01:53:18.495Z,99543.78
2019-01-17T01:55:47.339Z,99534.84
2019-01-17T01:58:16.163Z,99554.86
2019-01-17T02:00:45.057Z,99542.69
2019-01-17T02:03:13.925Z,99536.28
2019-01-17T02:05:42.845Z,99540.79
2019-01-17T02:08:11.827Z,99540.91
2019-01-17T02:10:40.704Z,99533.83
2019-01-17T02:13:09.540Z,99528.81
2019-01-17T02:15:38.426Z,99523.08
2019-01-17T02:18:07.359Z,99507.09
2019-01-17T02:20:36.280Z,99501.58
2019-01-17T02:23:05.214Z,99500.64
2019-01-17T02:25:34.221Z,99508.69
2019-01-17T02:28:02.995Z,99513.11
2019-01-17T02:30:31.837Z,99522.85
2019-01-17T02:33:00.730Z,99519.52
2019-01-17T02:35:29.594Z,99527.30
2019-01-17T02:37:58.485Z,99525.97
2019-01-17T02:40:27.356Z,99525.68
2019-01-17T02:42:56.247Z,99528.21
2019-01-17T02:45:25.074Z,99537.16
2019-01-17T02:47:53.953Z,99544.12
2019-01-17T02:50:22.825Z,99541.08
2019-01-17T02:52:51.669Z,99555.37
2019-01-17T02:55:20.596Z,99554.45
2019-01-17T02:57:49.445Z,99546.22
2019-01-17T03:00:18.466Z,99549.64
2019-01-17T03:02:47.423Z,99559.09
2019-01-17T03:05:16.353Z,99566.93
2019-01-17T03:07:45.192Z,99549.56
2019-01-17T03:10:16.268Z,99543.19
2019-01-17T03:12:45.187Z,99540.41
2019-01-17T03:15:14.155Z,99523.38
2019-01-17T03:17:43.007Z,99525.44
2019-01-17T03:20:12.967Z,99520.21
2019-01-17T03:22:41.814Z,99527.67
2019-01-17T03:25:10.892Z,99526.78
2019-01-17T03:27:40.211Z,99527.47
2019-01-17T03:30:14.720Z,99547.08
2019-01-17T03:32:43.553Z,99550.10
2019-01-17T03:35:12.658Z,99545.08
2019-01-17T03:37:41.600Z,99535.22
2019-01-17T03:40:13.127Z,99533.53
2019-01-17T03:42:42.068Z,99539.06
2019-01-17T03:45:11.252Z,99546.69
2019-01-17T03:47:43.002Z,99543.70
2019-01-17T03:50:13.418Z,99545.30
2019-01-17T03:52:42.451Z,99543.81
2019-01-17T03:55:13.161Z,99552.72
2019-01-17T03:57:42.086Z,99549.64
2019-01-17T04:00:14.093Z,99551.12
2019-01-17T04:02:43.024Z,99547.40
2019-01-17T04:05:11.949Z,99557.36
2019-01-17T04:07:40.887Z,99567.19
2019-01-17T04:10:11.227Z,99571.61
2019-01-17T04:12:40.078Z,99581.17
2019-01-17T04:15:09.551Z,99570.62
2019-01-17T04:17:38.397Z,99573.75
2019-01-17T04:20:10.020Z,99568.82
2019-01-17T04:22:38.953Z,99568.41
2019-01-17T04:25:08.347Z,99570.42
2019-01-17T04:27:37.258Z,99567.59
2019-01-17T04:30:08.753Z,99567.39
2019-01-17T04:32:37.637Z,99571.91
2019-01-17T04:35:06.564Z,99574.05
2019-01-17T04:37:35.398Z,99571.61
2019-01-17T04:40:05.077Z,99564.78
2019-01-17T04:42:35.491Z,99557.95
2019-01-17T04:45:04.508Z,99559.58
2019-01-17T04:47:33.357Z,99553.85
2019-01-17T04:50:02.205Z,99564.56
2019-01-17T04:52:31.042Z,99557.23
2019-01-17T04:55:05.031Z,99559.25
2019-01-17T04:57:30.529Z,99563.47
2019-01-17T04:59:59.419Z,99566.67
2019-01-17T05:02:28.234Z,99556.14
2019-01-17T05:04:57.832Z,99565.37
2019-01-17T05:07:26.787Z,99560.64
2019-01-17T05:09:55.637Z,99551.00
2019-01-17T05:12:24.412Z,99553.94
2019-01-17T05:14:53.373Z,99562.28
2019-01-17T05:17:22.229Z,99571.39
2019-01-17T05:19:51.015Z,99563.43
2019-01-17T05:22:19.890Z,99576.12
2019-01-17T05:24:48.758Z,99577.55
2019-01-17T05:27:17.628Z,99563.08
2019-01-17T05:29:46.486Z,99572.53
2019-01-17T05:32:15.343Z,99583.38
2019-01-17T05:34:44.318Z,99576.63
2019-01-17T05:37:13.228Z,99561.66
2019-01-17T05:39:42.034Z,99569.38
2019-01-17T05:42:10.826Z,99572.58
2019-01-17T05:44:39.771Z,99571.52
2019-01-17T05:47:08.696Z,99570.89
2019-01-17T05:49:37.500Z,99564.98
2019-01-17T05:52:06.357Z,99565.45
2019-01-17T05:54:35.243Z,99564.44
2019-01-17T05:57:04.095Z,99568.57
2019-01-17T05:59:33.028Z,99578.73
2019-01-17T06:02:01.868Z,99569.25
2019-01-17T06:04:30.736Z,99576.88
2019-01-17T06:06:59.560Z,99580.72
2019-01-17T06:09:28.363Z,99577.80
2019-01-17T06:11:57.270Z,99583.03
2019-01-17T06:14:26.183Z,99581.52
2019-01-17T06:16:55.107Z,99578.91
2019-01-17T06:19:24.030Z,99567.65
2019-01-17T06:21:52.888Z,99579.11
2019-01-17T06:24:21.804Z,99582.91
2019-01-17T06:26:50.683Z,99581.73
2019-01-17T06:29:19.498Z,99584.05
2019-01-17T06:31:48.344Z,99578.02
2019-01-17T06:34:17.282Z,99584.22
2019-01-17T06:36:46.131Z,99578.27
2019-01-17T06:39:14.972Z,99576.46
2019-01-17T06:41:43.860Z,99573.05
2019-01-17T06:44:12.833Z,99570.25
2019-01-17T06:46:41.714Z,99569.75
2019-01-17T06:49:10.581Z,99561.53
2019-01-17T06:51:39.521Z,99562.25
2019-01-17T06:54:08.372Z,99566.05
2019-01-17T06:56:37.313Z,99564.73
2019-01-17T06:59:06.229Z,99568.06
2019-01-17T07:01:35.118Z,99561.74
2019-01-17T07:04:03.955Z,99573.41
2019-01-17T07:06:32.920Z,99579.06
2019-01-17T07:09:01.792Z,99579.56
2019-01-17T07:11:30.729Z,99575.31
2019-01-17T07:13:59.486Z,99575.52
2019-01-17T07:16:28.452Z,99579.03
2019-01-17T07:18:57.349Z,99574.09
2019-01-17T07:21:26.292Z,99574.67
2019-01-17T07:23:55.063Z,99580.89
2019-01-17T07:26:23.956Z,99570.17
2019-01-17T07:28:52.786Z,99560.17
2019-01-17T07:31:21.646Z,99579.28
2019-01-17T07:33:50.546Z,99574.98
2019-01-17T07:36:19.419Z,99580.70
2019-01-17T07:38:48.505Z,99587.93
2019-01-17T07:41:17.400Z,99579.20
2019-01-17T07:43:46.259Z,99582.31
2019-01-17T07:46:15.209Z,99583.83
2019-01-17T07:48:44.036Z,99589.95
2019-01-17T07:51:12.990Z,99587.03
2019-01-17T07:53:41.884Z,99606.73
2019-01-17T07:56:10.882Z,99597.87
2019-01-17T07:59:48.224Z,99594.97
2019-01-17T08:02:17.200Z,99596.86
2019-01-17T08:04:46.096Z,99602.30
2019-01-17T08:07:15.060Z,99608.12
2019-01-17T08:09:43.833Z,99600.07
2019-01-17T08:12:12.720Z,99617.66
2019-01-17T08:14:41.608Z,99612.43
2019-01-17T08:17:10.744Z,99619.47
2019-01-17T08:19:39.689Z,99612.22
2019-01-17T08:22:08.668Z,99607.58
2019-01-17T08:24:37.593Z,99619.28
2019-01-17T08:27:06.482Z,99607.81
2019-01-17T08:29:35.404Z,99622.78
2019-01-17T08:32:04.282Z,99621.48
2019-01-17T08:34:33.227Z,99616.84
2019-01-17T08:37:02.158Z,99622.28
2019-01-17T08:39:31.100Z,99614.09
2019-01-17T08:42:00.074Z,99607.81
2019-01-17T08:47:45.431Z,99618.32
2019-01-17T08:50:17.215Z,99622.33
2019-01-17T08:52:46.186Z,99619.58
2019-01-17T08:55:15.140Z,99632.48
2019-01-17T08:57:44.050Z,99622.52
2019-01-17T09:00:15.521Z,99619.70
2019-01-17T09:02:44.426Z,99620.38
2019-01-17T09:05:13.335Z,99627.84
2019-01-17T09:07:42.279Z,99632.16
2019-01-17T09:10:14.317Z,99634.59
2019-01-17T09:12:43.200Z,99633.00
2019-01-17T09:15:13.372Z,99645.58
2019-01-17T09:17:42.345Z,99630.09
2019-01-17T09:20:13.179Z,99634.73
2019-01-17T09:22:42.084Z,99632.58
2019-01-17T09:25:12.186Z,99634.18
2019-01-17T09:27:55.975Z,99639.84
2019-01-17T09:30:24.835Z,99639.84
2019-01-17T09:33:14.504Z,99630.16
2019-01-17T09:35:43.540Z,99630.84
2019-01-17T09:38:12.470Z,99641.94
2019-01-17T09:40:41.339Z,99634.59
2019-01-17T09:43:10.181Z,99629.15
2019-01-17T09:45:41.800Z,99623.28
2019-01-17T09:48:10.668Z,99633.11
2019-01-17T09:50:39.594Z,99621.34
2019-01-17T09:53:08.488Z,99645.48
2019-01-17T09:55:37.317Z,99635.20
2019-01-17T09:58:06.199Z,99639.14
2019-01-17T10:00:35.118Z,99630.58
2019-01-17T10:03:04.049Z,99627.95
2019-01-17T10:05:32.935Z,99618.28
2019-01-17T10:08:01.927Z,99618.06
2019-01-17T10:10:30.873Z,99629.55
2019-01-17T10:12:59.655Z,99620.02
2019-01-17T10:15:55.887Z,99623.52
2019-01-17T10:19:01.743Z,99626.08
2019-01-17T10:21:40.208Z,99610.38
2019-01-17T10:25:05.567Z,99622.58
2019-01-17T10:28:08.227Z,99616.04
2019-01-17T10:31:33.047Z,99622.88
2019-01-17T10:34:40.325Z,99613.13
2019-01-17T10:37:52.332Z,99621.95
2019-01-17T10:40:40.040Z,99608.56
2019-01-17T10:43:35.504Z,99605.66
2019-01-17T10:46:28.552Z,99607.33
2019-01-17T10:49:19.764Z,99608.78
2019-01-17T10:52:25.684Z,99608.05
2019-01-17T10:55:19.827Z,99601.89
2019-01-17T10:58:04.214Z,99600.79
2019-01-17T11:01:25.447Z,99597.34
2019-01-17T11:04:13.872Z,99605.30
2019-01-17T11:06:59.290Z,99600.66
2019-01-17T11:09:52.450Z,99587.47
2019-01-17T11:12:59.733Z,99597.29
2019-01-17T11:15:52.747Z,99586.17
2019-01-17T11:19:10.667Z,99578.03
2019-01-17T11:22:17.204Z,99583.13
2019-01-17T11:25:22.327Z,99585.20
2019-01-17T11:28:13.153Z,99581.29
2019-01-17T11:31:17.077Z,99575.03
2019-01-17T11:34:22.953Z,99577.94
2019-01-17T11:37:30.642Z,99572.48
2019-01-17T11:40:46.732Z,99572.41
2019-01-17T11:43:51.139Z,99570.38
2019-01-17T11:46:35.298Z,99560.63
2019-01-17T11:49:28.908Z,99555.03
2019-01-17T11:52:13.046Z,99559.61
2019-01-17T11:54:59.403Z,99551.61
2019-01-17T11:58:21.556Z,99555.67
2019-01-17T12:01:09.093Z,99551.02
2019-01-17T12:03:54.985Z,99548.41
2019-01-17T12:06:24.156Z,99554.95
2019-01-17T12:08:53.123Z,99542.73
2019-01-17T12:11:22.029Z,99550.16
2019-01-17T12:13:50.818Z,99536.55
2019-01-17T12:16:19.724Z,99538.52
2019-01-17T12:18:48.631Z,99540.19
2019-01-17T12:21:17.470Z,99537.56
2019-01-17T12:23:46.353Z,99533.13
2019-01-17T12:26:15.305Z,99537.79
2019-01-17T12:28:44.265Z,99545.86
2019-01-17T12:31:13.244Z,99542.14
2019-01-17T12:33:42.136Z,99542.67
2019-01-17T12:36:10.995Z,99544.52
2019-01-17T12:38:39.964Z,99541.89
2019-01-17T12:41:08.933Z,99543.33
2019-01-17T12:43:37.880Z,99534.48
2019-01-17T12:46:06.889Z,99539.42
2019-01-17T12:48:35.878Z,99530.69
2019-01-17T12:51:04.861Z,99530.91
2019-01-17T12:53:33.794Z,99535.08
2019-01-17T12:56:03.197Z,99544.02
2019-01-17T12:58:32.453Z,99557.66
2019-01-17T13:01:01.537Z,99571.09
2019-01-17T13:03:30.500Z,99570.86
2019-01-17T13:05:59.360Z,99564.09
2019-01-17T13:08:28.223Z,99563.84
2019-01-17T13:10:57.129Z,99559.88
2019-01-17T13:13:25.985Z,99557.21
2019-01-17T13:15:54.891Z,99550.89
2019-01-17T13:18:23.757Z,99546.59
2019-01-17T13:20:52.683Z,99552.11
2019-01-17T13:23:21.620Z,99546.55
2019-01-17T13:25:50.636Z,99543.73
2019-01-17T13:28:19.747Z,99535.48
2019-01-17T13:30:48.743Z,99542.69
2019-01-17T13:33:17.630Z,99534.55
2019-01-17T13:35:46.609Z,99542.06
2019-01-17T13:38:15.615Z,99545.17
2019-01-17T13:40:44.494Z,99547.79
2019-01-17T13:43:13.340Z,99545.77
2019-01-17T13:45:42.316Z,99547.58
2019-01-17T13:48:11.305Z,99540.53
2019-01-17T13:50:40.265Z,99537.16
2019-01-17T13:53:09.312Z,99540.36
2019-01-17T13:55:38.330Z,99536.91
2019-01-17T13:58:07.278Z,99533.62
2019-01-17T14:00:36.194Z,99543.53
2019-01-17T14:03:05.071Z,99542.52
2019-01-17T14:05:34.003Z,99536.70
2019-01-17T14:08:02.954Z,99549.17
2019-01-17T14:10:31.920Z,99555.54
2019-01-17T14:13:00.892Z,99558.53
2019-01-17T14:15:30.241Z,99563.05
2019-01-17T14:17:59.187Z,99562.25
2019-01-17T14:20:28.207Z,99562.96
2019-01-17T14:22:57.205Z,99560.64
2019-01-17T14:25:26.157Z,99567.47
2019-01-17T14:27:55.208Z,99574.05
2019-01-17T14:30:26.877Z,99572.23
2019-01-17T14:32:55.782Z,99571.86
2019-01-17T14:35:24.754Z,99582.73
2019-01-17T14:37:53.804Z,99586.87
2019-01-17T14:40:22.753Z,99600.77
2019-01-17T14:42:51.714Z,99599.47
2019-01-17T14:45:20.788Z,99608.82
2019-01-17T14:47:49.782Z,99608.50
2019-01-17T14:50:23.770Z,99616.45
2019-01-17T14:52:52.653Z,99613.13
2019-01-17T14:55:21.549Z,99619.19
2019-01-17T14:57:50.436Z,99619.16
2019-01-17T15:00:21.284Z,99623.58
2019-01-17T15:02:50.267Z,99633.05
2019-01-17T15:05:19.233Z,99630.32
2019-01-17T15:07:48.144Z,99628.95
2019-01-17T15:10:35.488Z,99632.37
2019-01-17T15:13:04.641Z,99635.78
2019-01-17T15:15:33.533Z,99642.81
2019-01-17T15:18:02.427Z,99648.24
2019-01-17T15:20:31.418Z,99654.48
2019-01-17T15:23:00.399Z,99660.42
2019-01-17T15:25:29.351Z,99659.91
2019-01-17T15:27:58.249Z,99667.35
2019-01-17T15:30:27.331Z,99674.89
2019-01-17T15:32:56.294Z,99671.68
2019-01-17T15:35:25.300Z,99675.11
2019-01-17T15:37:54.239Z,99683.75
2019-01-17T15:40:25.325Z,99691.58
2019-01-17T15:42:54.309Z,99685.16
2019-01-17T15:45:23.285Z,99687.75
2019-01-17T15:47:52.274Z,99696.29
2019-01-17T15:50:21.407Z,99692.88
2019-01-17T15:52:50.411Z,99692.07
2019-01-17T15:55:19.512Z,99693.47
2019-01-17T15:57:48.450Z,99696.98
2019-01-17T16:00:22.616Z,99700.70
2019-01-17T16:02:51.694Z,99693.47
2019-01-17T16:05:20.909Z,99704.63
2019-01-17T16:07:49.781Z,99709.05
2019-01-17T16:10:18.795Z,99707.54
2019-01-17T16:12:47.802Z,99714.88
2019-01-17T16:15:18.712Z,99718.79
2019-01-17T16:17:47.703Z,99720.91
2019-01-17T16:20:16.772Z,99723.21
2019-01-17T16:22:45.867Z,99728.84
2019-01-17T16:25:15.166Z,99734.37
2019-01-17T16:27:44.093Z,99734.64
2019-01-17T16:30:27.117Z,99737.66
2019-01-17T16:32:56.097Z,99741.57
2019-01-17T16:35:24.976Z,99746.59
2019-01-17T16:37:53.937Z,99739.97
2019-01-17T16:40:22.924Z,99746.39
2019-01-17T16:42:51.879Z,99746.59
2019-01-17T16:46:16.896Z,99755.23
2019-01-17T16:48:45.993Z,99753.69
2019-01-17T16:51:15.105Z,99753.38
2019-01-17T16:54:25.483Z,99751.18
2019-01-17T16:56:54.429Z,99765.17
2019-01-17T16:59:23.449Z,99766.84
2019-01-17T17:01:52.422Z,99775.12
2019-01-17T17:04:21.404Z,99782.25
2019-01-17T17:06:50.546Z,99787.34
2019-01-17T17:09:20.027Z,99789.25
2019-01-17T17:11:49.656Z,99789.25
2019-01-17T17:14:19.092Z,99789.70
2019-01-17T17:16:48.410Z,99795.77
2019-01-17T17:19:17.655Z,99793.27
2019-01-17T17:21:47.300Z,99792.06
2019-01-17T17:24:16.623Z,99800.79
2019-01-17T17:26:45.831Z,99805.46
2019-01-17T17:29:14.815Z,99803.90
2019-01-17T17:31:44.054Z,99811.34
2019-01-17T17:34:13.106Z,99817.64
2019-01-17T17:37:14.830Z,99823.09
2019-01-17T17:39:43.810Z,99826.23
2019-01-17T17:42:30.980Z,99827.31
2019-01-17T17:45:00.225Z,99828.81
2019-01-17T17:47:29.164Z,99824.01
2019-01-17T17:49:58.681Z,99829.23
2019-01-17T17:52:27.693Z,99830.09
2019-01-17T17:54:56.722Z,99827.67
2019-01-17T17:57:25.708Z,99822.31
2019-01-17T17:59:54.719Z,99812.35
2019-01-17T18:02:29.904Z,99813.73
2019-01-17T18:04:59.303Z,99816.92
2019-01-17T18:07:28.256Z,99832.30
2019-01-17T18:09:57.312Z,99833.69
2019-01-17T18:12:26.403Z,99838.78
2019-01-17T18:14:55.497Z,99847.23
2019-01-17T18:17:24.622Z,99844.70
2019-01-17T18:19:54.178Z,99847.97
2019-01-17T18:22:23.728Z,99846.55
2019-01-17T18:24:52.743Z,99853.44
2019-01-17T18:27:21.739Z,99854.63
2019-01-17T18:29:50.637Z,99852.45
2019-01-17T18:32:19.680Z,99860.12
2019-01-17T18:34:48.745Z,99877.24
2019-01-17T18:37:17.690Z,99886.30
2019-01-17T18:39:46.690Z,99892.13
2019-01-17T18:42:15.715Z,99903.69
2019-01-17T18:44:44.697Z,99916.58
2019-01-17T18:47:13.724Z,99924.84
2019-01-17T18:49:42.713Z,99932.91
2019-01-17T18:52:11.635Z,99927.89
2019-01-17T18:54:40.694Z,99930.05
2019-01-17T18:57:09.698Z,99939.66
2019-01-17T18:59:38.676Z,99939.78
2019-01-17T19:02:07.668Z,99946.52
2019-01-17T19:04:36.678Z,99957.19
2019-01-17T19:07:05.628Z,99962.20
2019-01-17T19:09:34.642Z,99966.86
2019-01-17T19:12:03.647Z,99982.30
2019-01-17T19:14:32.757Z,99993.32
2019-01-17T19:17:01.613Z,99992.22
2019-01-17T19:19:30.517Z,99993.77
2019-01-17T19:21:59.362Z,99989.16
2019-01-17T19:24:28.242Z,99992.57
2019-01-17T19:26:57.105Z,99996.48
2019-01-17T19:29:25.948Z,100000.09
2019-01-17T19:31:54.944Z,100005.61
2019-01-17T19:34:23.824Z,100009.80
2019-01-17T19:36:52.678Z,100016.00
2019-01-17T19:39:21.568Z,100021.64
2019-01-17T19:41:50.505Z,100019.92
2019-01-17T19:44:19.397Z,100021.23
2019-01-17T19:46:48.349Z,100013.75
2019-01-17T19:49:17.339Z,100023.68
2019-01-17T19:51:46.257Z,100028.51
2019-01-17T19:54:15.122Z,100029.31
2019-01-17T19:56:44.104Z,100031.34
2019-01-17T19:59:12.990Z,100040.53
2019-01-17T20:01:41.964Z,100049.64
2019-01-17T20:04:31.800Z,100057.50
2019-01-17T20:07:01.639Z,100062.39
2019-01-17T20:09:30.653Z,100068.09
2019-01-17T20:11:59.586Z,100070.84
2019-01-17T20:14:28.477Z,100083.20
2019-01-17T20:16:57.485Z,100090.30
2019-01-17T20:19:26.517Z,100097.08
2019-01-17T20:21:55.456Z,100101.25
2019-01-17T20:24:24.465Z,100106.31
2019-01-17T20:26:53.427Z,100115.87
2019-01-17T20:29:22.379Z,100149.72
2019-01-17T20:31:51.379Z,100155.37
2019-01-17T20:34:20.326Z,100168.25
2019-01-17T20:36:49.322Z,100186.13
2019-01-17T20:39:18.284Z,100197.20
2019-01-17T20:41:47.182Z,100207.92
2019-01-17T20:44:16.185Z,100223.91
2019-01-17T20:46:45.195Z,100227.81
2019-01-17T20:49:14.103Z,100236.26
2019-01-17T20:51:43.122Z,100246.66
2019-01-17T20:54:12.348Z,100255.08
2019-01-17T20:56:41.489Z,100265.02
2019-01-17T20:59:10.540Z,100269.12
2019-01-17T21:02:08.427Z,100279.70
2019-01-17T21:04:37.306Z,100287.04
2019-01-17T21:07:06.375Z,100311.27
2019-01-17T21:09:35.263Z,100318.44
2019-01-17T21:12:04.385Z,100332.61
2019-01-17T21:14:33.388Z,100342.52
2019-01-17T21:17:02.366Z,100340.72
2019-01-17T21:19:31.451Z,100353.44
2019-01-17T21:22:00.339Z,100371.97
2019-01-17T21:24:29.297Z,100373.61
2019-01-17T21:26:58.357Z,100392.14
2019-01-17T21:29:27.328Z,100393.92
2019-01-17T21:31:56.222Z,100401.89
2019-01-17T21:34:25.243Z,100420.08
2019-01-17T21:36:54.205Z,100422.35
2019-01-17T21:39:29.179Z,100434.70
2019-01-17T21:41:58.162Z,100442.81
2019-01-17T21:44:27.078Z,100455.16
2019-01-17T21:47:13.934Z,100466.21
2019-01-17T21:49:42.830Z,100473.52
2019-01-17T21:52:11.780Z,100477.91
2019-01-17T21:54:40.705Z,100495.62
2019-01-17T21:57:09.614Z,100500.66
2019-01-17T21:59:38.599Z,100502.61
2019-01-17T22:02:07.466Z,100509.11
2019-01-17T22:04:36.381Z,100516.38
2019-01-17T22:07:05.243Z,100526.16
2019-01-17T22:09:34.207Z,100526.13
2019-01-17T22:15:30.743Z,100554.59
2019-01-17T22:17:59.712Z,100560.08
2019-01-17T22:20:34.453Z,100571.77
2019-01-17T22:23:03.360Z,100580.55
2019-01-17T22:25:32.279Z,100594.55
2019-01-17T22:28:01.186Z,100591.47
2019-01-17T22:30:30.084Z,100604.42
2019-01-17T22:32:58.966Z,100606.25
2019-01-17T22:35:28.031Z,100608.86
2019-01-17T22:37:56.876Z,100619.26
2019-01-17T22:40:25.735Z,100629.33
2019-01-17T22:42:54.619Z,100636.48
2019-01-17T22:45:25.968Z,100639.72
2019-01-17T22:47:54.957Z,100644.44
2019-01-17T22:50:23.835Z,100654.66
2019-01-17T22:52:52.840Z,100661.49
2019-01-17T22:55:21.811Z,100670.10
2019-01-17T22:57:50.702Z,100659.70
2019-01-17T23:00:51.306Z,100669.94
2019-01-17T23:03:25.841Z,100679.36
2019-01-17T23:05:54.734Z,100689.58
2019-01-17T23:08:23.681Z,100688.72
2019-01-17T23:10:52.577Z,100696.50
2019-01-17T23:13:21.562Z,100700.73
2019-01-17T23:15:50.373Z,100717.88
2019-01-17T23:18:19.249Z,100714.51
2019-01-17T23:20:48.238Z,100720.84
2019-01-17T23:23:17.198Z,100733.84
2019-01-17T23:25:46.062Z,100735.94
2019-01-17T23:28:14.927Z,100741.22
2019-01-17T23:30:43.826Z,100745.10
2019-01-17T23:33:12.948Z,100748.64
2019-01-17T23:38:28.218Z,100759.14
2019-01-17T23:40:57.086Z,100763.54
2019-01-17T23:43:26.027Z,100756.23
2019-01-17T23:45:54.982Z,100769.66
2019-01-17T23:48:23.832Z,100769.98
2019-01-17T23:50:52.952Z,100776.84
2019-01-17T23:53:21.819Z,100777.58
2019-01-17T23:55:50.695Z,100784.12
2019-01-17T23:58:19.563Z,100796.95
